Thorco Crystal — V2BP9 — position and weather

sailwx.info

Track history (hours):
 
Tides and Currents Weather Stations Pressure Air Temp Water Temp Dewpoint Dewpoint Depression Visibility Wind Speed Wind Dir Waves Ship Positions

Thorco Crystal

Last reported at 2016-May-19 14:19 UTC. Time now 2016-Jul-27 19:19 UTC.
Position N 01°15' E 104°03'.
Warning: this ship's position is months out of date.

Length 145 m; draft 6.4 m.

Type: Ship. MMSI: 304736000.

Date/timePositionNaut miles runAvg speedWind from/ knotsBaromVisibWave heightAir tempDewpointWater temp
2016-May-19 14:19N 01°15' E 104°03'8 9.9
2016-May-19 13:33N 01°16' E 103°56'3 1.9
2016-May-19 12:16N 01°17' E 103°53'0 0.0
2016-May-19 11:31N 01°16' E 103°53'0 0.0
2016-May-19 10:31N 01°16' E 103°53'0 0.0
2016-May-19 09:31N 01°17' E 103°53'0 0.1
2016-May-19 08:31N 01°17' E 103°53'0 0.1
2016-May-19 07:28N 01°17' E 103°53'0 0.0
2016-May-19 06:31N 01°17' E 103°53'0 0.0
2016-May-19 04:25N 01°17' E 103°54'0 0.1
2016-May-19 03:31N 01°17' E 103°53'0 0.1
2016-May-19 02:31N 01°16' E 103°53'0 0.1
2016-May-19 01:28N 01°16' E 103°53'3 3.8
2016-May-19 00:33N 01°13' E 103°54'1212.1
2016-May-18 23:33N 01°06' E 103°44'9311.6
2016-May-18 15:33N 01°50' E 102°23'  
Track history (hours):
 
Tides and Currents Weather Stations Pressure Air Temp Water Temp Dewpoint Dewpoint Depression Visibility Wind Speed Wind Dir Waves Ship Positions

Thorco Crystal

Last reported at 2016-May-19 14:19 UTC. Time now 2016-Jul-27 19:19 UTC.
Position N 01°15' E 104°03'.
Warning: this ship's position is months out of date.

Length 145 m; draft 6.4 m.

Type: Ship. MMSI: 304736000.

Date/timePositionNaut miles runAvg speedWind from/ knotsBaromVisibWave heightAir tempDewpointWater temp
2016-May-19 14:19N 01°15' E 104°03'8 9.9
2016-May-19 13:33N 01°16' E 103°56'3 1.9
2016-May-19 12:16N 01°17' E 103°53'0 0.0
2016-May-19 11:31N 01°16' E 103°53'0 0.0
2016-May-19 10:31N 01°16' E 103°53'0 0.0
2016-May-19 09:31N 01°17' E 103°53'0 0.1
2016-May-19 08:31N 01°17' E 103°53'0 0.1
2016-May-19 07:28N 01°17' E 103°53'0 0.0
2016-May-19 06:31N 01°17' E 103°53'0 0.0
2016-May-19 04:25N 01°17' E 103°54'0 0.1
2016-May-19 03:31N 01°17' E 103°53'0 0.1
2016-May-19 02:31N 01°16' E 103°53'0 0.1
2016-May-19 01:28N 01°16' E 103°53'3 3.8
2016-May-19 00:33N 01°13' E 103°54'1212.1
2016-May-18 23:33N 01°06' E 103°44'9311.6
2016-May-18 15:33N 01°50' E 102°23'  

Dump ship's entire track history